ENVAENKB

Guest
Details From ENVA - Trondheim Vaernes
To ENKB - KVERNBERGET
Flight Number -
Tags generated
Created
Modified
Stats Distance 86 nm / 160 km
Max Altitude 7,700 ft / 2,347 m
Waypoints 3
Social Downloads 1
Likes 0
Share VATSIM

Download

Looking for another format? Having issues loading an existing format? Contact us
Advertisement - Login to hide

Notes

Basic altitude profile: - Ascent Rate: 2500ft/min - Ascent Speed: 250kts - Cruise Altitude: 35000ft - Cruise Speed: 420kts - Descent Rate: 1500ft/min - Descent Speed: 250kts Options: - Use NATs: yes - Use PACOTS: yes - Use low airways: yes - Use high airways: yes

Route

ENVA DEKEB ENKB

ID Type Via Altitude (ft/m) Position (lat/lon) Dist (leg/tot) Name
O ENVA APT - 0 / 0 63.45750 / 10.92420 - / 0 nm Trondheim Vaernes
DEKEB FIX - 7,700 / 2,347 63.29690 / 9.08678 50 / 50 nm
O ENKB APT - 0 / 0 63.11190 / 7.82453 35 / 86 nm KVERNBERGET

Altitude Profile

Advertisement - Login to hide

ENVA

Details ICAO ENVA (TRD)
Name Trondheim Vaernes
Region Norway
Timezone Europe/Oslo (UTC+1.0)
Stats Elevation 56 ft / 17 m (AMSL)
Location 63.457500° 10.924200°
Runways 1
Magnetic Variation 3.935° E

METAR

ENVA 281820Z 31008KT 9999 VCSH FEW010 SCT035 BKN110 M03/M06 Q1032 RMK WIND 670FT 33015KT

Decode

TAF

TAF ENVA 281700Z 2818/2918 30010KT 9999 FEW015CB BKN030 TEMPO 2818/2918 29020G30KT 0800 SHSN VV006

Decode

Departure Runways

ID Width Length Bearing (true/mag) Surface Threshold Overrun Markings Lighting
09 148 ft / 45 m 9,744 ft / 2,970 m 90.18° / 86.25° ASPHALT 830 ft / 253 m 0 ft / 0 m PREC-APP CENTERLINE EDGE THRESHOLD CALVERT REIL-OMNI
27 148 ft / 45 m 9,744 ft / 2,970 m 270.24° / 266.30° ASPHALT 745 ft / 227 m 0 ft / 0 m PREC-APP CENTERLINE EDGE THRESHOLD CALVERT REIL-OMNI

ENKB

Details ICAO ENKB (KSU)
Name KVERNBERGET
Region Norway
Timezone Europe/Oslo (UTC+1.0)
Stats Elevation 204 ft / 62 m (AMSL)
Location 63.111900° 7.824530°
Runways 1
Magnetic Variation 2.427° E

METAR

ENKB 281750Z AUTO 31013KT 280V350 9999 FZUP FEW013/// SCT034/// BKN044/// M01/M05 Q1035 RESHUP REUP RMK WIND 745FT 33027KT

Decode

TAF

Not found

Destination Runways

ID Width Length Bearing (true/mag) Surface Threshold Overrun Markings Lighting
07 148 ft / 45 m 6,192 ft / 1,887 m 71.39° / 68.96° ASPHALT 197 ft / 60 m 0 ft / 0 m PREC-APP CENTERLINE EDGE THRESHOLD MALS
25 148 ft / 45 m 6,192 ft / 1,887 m 251.42° / 249.00° ASPHALT 263 ft / 80 m 0 ft / 0 m APP CENTERLINE EDGE THRESHOLD

Approach Navaids

Runway Type Ident Frequency Range Bearing (true/mag) Slope Elevation
07 MM MM - - 71.41° / 68.98 ° - 204 ft / 62 m (AMSL)
07 LOC-ILS KB 110.10 MHz 18 nm / 33 km 71.60° / 69.18 ° - 204 ft / 62 m (AMSL)
07 GS KB 110.10 MHz 10 nm / 19 km 71.81° / 69.39 ° 3.00° 204 ft / 62 m (AMSL)
07 OM OM - - 71.41° / 68.98 ° - 204 ft / 62 m (AMSL)

Popular Alternatives